Time;durP1;ratioP1;P1;durP2;ratioP2;P2;SDS_P1;SDS_P2;PMS_P1;PMS_P2;Temp;Humidity;BMP_temperature;BMP_pressure;BME280_temperature;BME280_humidity;BME280_pressure;Samples;Min_cycle;Max_cycle;Signal;HPM_P1;HPM_P2
2022/01/24 00:01:24;;;;;;;22.17;10.70;;;;;;;;;;4975876;28;20030;-61
2022/01/24 00:03:56;;;;;;;21.20;10.75;;;;;;;;;;4975557;28;20044;-57
2022/01/24 00:06:22;;;;;;;23.65;11.10;;;;;;;;;;4975995;28;20029;-59
2022/01/24 00:08:49;;;;;;;21.50;9.95;;;;;;;;;;4975274;28;20074;-62
2022/01/24 00:11:19;;;;;;;20.75;9.13;;;;;;;;;;4975409;28;20103;-61
2022/01/24 00:16:23;;;;;;;22.38;10.43;;;;;;;;;;4975452;28;20093;-55
2022/01/24 00:26:51;;;;;;;20.73;8.45;;;;;;;;;;4975379;28;20054;-59
2022/01/24 00:29:19;;;;;;;17.77;9.15;;;;;;;;;;4975303;28;20022;-59
2022/01/24 00:31:46;;;;;;;16.90;8.93;;;;;;;;;;4975404;28;20379;-61
2022/01/24 00:34:13;;;;;;;18.60;8.68;;;;;;;;;;4975502;28;20026;-59
2022/01/24 00:36:40;;;;;;;19.98;8.20;;;;;;;;;;4975440;28;20027;-60
2022/01/24 00:39:06;;;;;;;18.35;9.05;;;;;;;;;;4975229;28;20026;-58
2022/01/24 00:41:41;;;;;;;19.33;9.70;;;;;;;;;;4975244;28;20035;-55
2022/01/24 00:44:37;;;;;;;19.42;9.98;;;;;;;;;;4974280;28;20033;-58
2022/01/24 00:47:03;;;;;;;21.90;9.52;;;;;;;;;;4973003;28;20034;-60
2022/01/24 00:54:56;;;;;;;18.70;8.35;;;;;;;;;;4973125;28;20058;-58
2022/01/24 00:57:22;;;;;;;19.23;9.00;;;;;;;;;;4972366;28;20054;-60
2022/01/24 00:59:49;;;;;;;19.17;9.18;;;;;;;;;;4973844;28;20514;-56
2022/01/24 01:02:16;;;;;;;22.55;9.27;;;;;;;;;;4975353;28;20031;-60
2022/01/24 01:07:19;;;;;;;20.05;8.95;;;;;;;;;;4975064;28;20114;-57
2022/01/24 01:18:14;;;;;;;20.15;8.63;;;;;;;;;;4974365;28;20408;-57
2022/01/24 01:21:08;;;;;;;22.25;8.80;;;;;;;;;;4974946;28;20444;-55
2022/01/24 01:23:31;;;;;;;14.43;8.00;;;;;;;;;;4973613;28;20035;-58
2022/01/24 01:26:00;;;;;;;16.88;8.73;;;;;;;;;;4974748;28;20033;-61
2022/01/24 01:28:27;;;;;;;21.73;8.68;;;;;;;;;;4975322;28;20031;-58
2022/01/24 01:30:58;;;;;;;15.55;8.40;;;;;;;;;;4977678;28;20027;-58
2022/01/24 01:57:40;;;;;;;17.52;8.15;;;;;;;;;;4976175;28;20055;-60
2022/01/24 02:00:08;;;;;;;19.50;9.20;;;;;;;;;;4977792;28;20049;-62
2022/01/24 02:02:34;;;;;;;16.05;8.40;;;;;;;;;;4978225;28;20023;-60
2022/01/24 02:05:00;;;;;;;19.52;9.02;;;;;;;;;;4977840;28;20027;-58
2022/01/24 02:07:27;;;;;;;19.60;8.80;;;;;;;;;;4977380;28;20019;-61
2022/01/24 02:09:53;;;;;;;18.23;7.53;;;;;;;;;;4977296;28;20029;-60
2022/01/24 02:12:23;;;;;;;14.57;7.15;;;;;;;;;;4978042;28;20061;-58
2022/01/24 02:14:56;;;;;;;17.50;8.02;;;;;;;;;;4977885;28;20380;-59
2022/01/24 02:20:38;;;;;;;18.13;7.60;;;;;;;;;;4941364;28;20031;-58
2022/01/24 02:23:36;;;;;;;18.23;8.35;;;;;;;;;;4977410;28;20039;-60
2022/01/24 02:26:05;;;;;;;20.50;8.52;;;;;;;;;;4977759;28;20082;-59
2022/01/24 02:28:45;;;;;;;17.88;8.02;;;;;;;;;;4977859;28;20143;-60
2022/01/24 02:31:38;;;;;;;16.30;7.55;;;;;;;;;;4977796;28;20042;-60
2022/01/24 02:34:06;;;;;;;14.25;7.38;;;;;;;;;;4977722;28;20498;-57
2022/01/24 02:36:32;;;;;;;15.85;8.45;;;;;;;;;;4977402;28;20023;-62
2022/01/24 02:39:20;;;;;;;15.70;7.95;;;;;;;;;;4977689;28;20026;-58
2022/01/24 02:50:00;;;;;;;17.52;7.25;;;;;;;;;;4976823;28;20054;-61
2022/01/24 02:52:27;;;;;;;14.63;7.28;;;;;;;;;;4977371;28;20035;-60
2022/01/24 02:54:54;;;;;;;18.23;8.10;;;;;;;;;;4977654;28;20033;-60
2022/01/24 02:57:20;;;;;;;18.55;8.57;;;;;;;;;;4976988;28;20502;-62
2022/01/24 02:59:47;;;;;;;15.50;7.75;;;;;;;;;;4977285;28;20030;-63
2022/01/24 03:02:13;;;;;;;14.02;7.18;;;;;;;;;;4977188;28;20058;-61
2022/01/24 03:04:39;;;;;;;14.55;7.13;;;;;;;;;;4976914;28;20022;-58
2022/01/24 03:07:06;;;;;;;11.63;6.63;;;;;;;;;;4976857;28;20464;-55
2022/01/24 03:09:33;;;;;;;13.52;6.75;;;;;;;;;;4976826;28;20492;-56
2022/01/24 03:12:07;;;;;;;13.70;6.35;;;;;;;;;;4976658;28;20038;-57
2022/01/24 03:14:35;;;;;;;13.48;6.60;;;;;;;;;;4976995;28;20468;-59
2022/01/24 03:17:02;;;;;;;13.52;6.97;;;;;;;;;;4976633;28;20051;-58
2022/01/24 03:19:28;;;;;;;13.60;6.25;;;;;;;;;;4976918;28;20015;-58
2022/01/24 03:21:54;;;;;;;14.38;7.10;;;;;;;;;;4976897;28;20078;-59
2022/01/24 03:24:20;;;;;;;12.85;6.75;;;;;;;;;;4976631;28;20019;-61
2022/01/24 03:26:47;;;;;;;16.73;7.60;;;;;;;;;;4977394;28;20027;-61
2022/01/24 03:29:13;;;;;;;13.10;6.35;;;;;;;;;;4976787;28;20031;-62
2022/01/24 03:31:40;;;;;;;14.18;6.88;;;;;;;;;;4976505;28;20035;-59
2022/01/24 03:34:06;;;;;;;13.27;6.32;;;;;;;;;;4976621;28;20018;-56
2022/01/24 03:36:32;;;;;;;12.00;6.28;;;;;;;;;;4976384;28;20085;-60
2022/01/24 03:38:59;;;;;;;11.00;6.13;;;;;;;;;;4976312;28;20375;-61
2022/01/24 03:41:25;;;;;;;13.35;6.70;;;;;;;;;;4976861;28;20041;-60
2022/01/24 03:43:52;;;;;;;11.02;6.25;;;;;;;;;;4976162;28;20015;-59
2022/01/24 03:48:48;;;;;;;13.15;6.55;;;;;;;;;;4976382;28;20054;-63
2022/01/24 03:51:14;;;;;;;14.65;7.55;;;;;;;;;;4975940;28;20031;-59
2022/01/24 03:53:41;;;;;;;17.95;7.57;;;;;;;;;;4975660;28;20022;-58
2022/01/24 03:56:08;;;;;;;15.10;6.80;;;;;;;;;;4976221;28;20419;-61
2022/01/24 03:58:34;;;;;;;15.50;7.30;;;;;;;;;;4976223;28;20109;-60
2022/01/24 04:01:01;;;;;;;14.15;7.40;;;;;;;;;;4975799;28;20055;-58
2022/01/24 04:03:28;;;;;;;14.40;7.43;;;;;;;;;;4976382;28;20027;-58
2022/01/24 04:05:54;;;;;;;16.45;7.07;;;;;;;;;;4975487;28;20023;-59
2022/01/24 04:08:20;;;;;;;14.98;7.35;;;;;;;;;;4976134;28;20026;-58
2022/01/24 04:10:50;;;;;;;14.82;7.10;;;;;;;;;;4975473;28;20027;-62
2022/01/24 04:13:31;;;;;;;14.27;6.67;;;;;;;;;;4975610;28;20026;-55
2022/01/24 04:21:33;;;;;;;;;;;;;;;;;;4975554;28;20038;-58
2022/01/24 04:24:05;;;;;;;14.13;6.95;;;;;;;;;;4976112;28;19907;-59
2022/01/24 04:26:32;;;;;;;13.70;6.72;;;;;;;;;;4975675;28;20046;-62
2022/01/24 04:28:59;;;;;;;12.88;6.25;;;;;;;;;;4975267;28;20038;-61
2022/01/24 04:31:25;;;;;;;13.43;6.43;;;;;;;;;;4975530;28;20031;-59
2022/01/24 04:33:51;;;;;;;18.65;7.63;;;;;;;;;;4974797;28;20486;-60
2022/01/24 04:36:18;;;;;;;13.50;6.38;;;;;;;;;;4974351;28;20650;-60
2022/01/24 04:38:45;;;;;;;11.93;6.40;;;;;;;;;;4956885;28;20030;-61
2022/01/24 04:46:55;;;;;;;15.40;7.32;;;;;;;;;;4975394;28;20034;-60
2022/01/24 04:52:24;;;;;;;15.40;7.10;;;;;;;;;;4975023;28;20069;-62
2022/01/24 04:54:51;;;;;;;17.52;7.43;;;;;;;;;;4957462;28;20027;-61
2022/01/24 04:57:22;;;;;;;16.75;7.47;;;;;;;;;;4975022;28;20395;-60
2022/01/24 04:59:50;;;;;;;14.75;7.22;;;;;;;;;;4975033;28;20033;-59
2022/01/24 05:02:17;;;;;;;18.30;7.30;;;;;;;;;;4975074;28;20037;-59
2022/01/24 05:04:43;;;;;;;16.40;7.18;;;;;;;;;;4974513;28;20062;-61
2022/01/24 05:07:09;;;;;;;18.20;7.82;;;;;;;;;;4975028;28;20029;-61
2022/01/24 05:12:36;;;;;;;16.23;7.93;;;;;;;;;;4974968;28;20066;-61
2022/01/24 05:23:36;;;;;;;59.30;19.92;;;;;;;;;;4974397;28;20062;-64
2022/01/24 05:26:04;;;;;;;74.20;24.20;;;;;;;;;;4974934;28;20023;-58
2022/01/24 05:28:31;;;;;;;51.25;19.25;;;;;;;;;;4974770;28;20476;-61
2022/01/24 05:30:58;;;;;;;57.97;23.15;;;;;;;;;;4974140;28;20030;-59
2022/01/24 05:33:25;;;;;;;58.28;21.05;;;;;;;;;;4974844;28;20025;-58
2022/01/24 05:35:51;;;;;;;60.95;23.52;;;;;;;;;;4974517;28;20022;-60
2022/01/24 05:38:17;;;;;;;60.33;21.27;;;;;;;;;;4974385;28;20034;-56
2022/01/24 05:40:45;;;;;;;46.17;15.88;;;;;;;;;;4974221;28;20468;-57
2022/01/24 05:43:11;;;;;;;33.22;12.88;;;;;;;;;;4974712;28;20349;-65
2022/01/24 05:45:37;;;;;;;27.80;11.50;;;;;;;;;;4973341;28;20379;-59
2022/01/24 05:48:04;;;;;;;24.33;10.25;;;;;;;;;;4974573;28;20042;-62
2022/01/24 05:50:30;;;;;;;23.40;11.10;;;;;;;;;;4974932;28;20483;-58
2022/01/24 05:52:56;;;;;;;22.45;9.88;;;;;;;;;;4974241;28;20041;-58
2022/01/24 05:55:23;;;;;;;23.40;9.80;;;;;;;;;;4974765;28;20023;-59
2022/01/24 05:57:52;;;;;;;21.67;10.32;;;;;;;;;;4974294;28;20133;-61
2022/01/24 06:00:18;;;;;;;25.27;10.52;;;;;;;;;;4974417;28;20472;-63
2022/01/24 06:02:45;;;;;;;31.38;15.88;;;;;;;;;;4974488;28;20115;-59
2022/01/24 06:05:11;;;;;;;21.58;9.85;;;;;;;;;;4973825;28;20022;-59
2022/01/24 06:07:37;;;;;;;20.42;10.73;;;;;;;;;;4973956;28;20464;-59
2022/01/24 06:10:04;;;;;;;20.60;10.10;;;;;;;;;;4974409;28;20027;-59
2022/01/24 06:12:30;;;;;;;18.58;9.48;;;;;;;;;;4974211;28;20035;-61
2022/01/24 06:14:56;;;;;;;19.00;8.95;;;;;;;;;;4974468;28;20404;-61
2022/01/24 06:17:22;;;;;;;26.83;12.05;;;;;;;;;;4977766;28;20031;-61
2022/01/24 06:19:48;;;;;;;20.50;9.95;;;;;;;;;;4977618;28;20019;-60
2022/01/24 06:22:15;;;;;;;20.65;9.38;;;;;;;;;;4977832;28;20041;-61
2022/01/24 06:24:41;;;;;;;25.70;12.07;;;;;;;;;;4978394;28;20023;-61
2022/01/24 06:27:07;;;;;;;23.80;9.93;;;;;;;;;;4977690;28;20380;-61
2022/01/24 06:29:33;;;;;;;19.15;9.45;;;;;;;;;;4977807;28;20037;-56
2022/01/24 06:31:59;;;;;;;20.42;9.07;;;;;;;;;;4977694;28;20105;-60
2022/01/24 06:34:26;;;;;;;23.52;10.63;;;;;;;;;;4977128;28;20023;-64
2022/01/24 06:36:52;;;;;;;29.80;11.18;;;;;;;;;;4977570;28;20023;-61
2022/01/24 06:39:18;;;;;;;22.58;10.77;;;;;;;;;;4977820;28;20030;-60
2022/01/24 06:41:51;;;;;;;25.80;11.43;;;;;;;;;;4977048;28;20031;-60
2022/01/24 06:44:18;;;;;;;24.02;11.27;;;;;;;;;;4977243;28;20027;-61
2022/01/24 06:46:44;;;;;;;27.83;13.00;;;;;;;;;;4976701;28;20023;-60
2022/01/24 06:49:11;;;;;;;22.40;11.77;;;;;;;;;;4977082;28;20110;-61
2022/01/24 06:51:37;;;;;;;23.30;10.82;;;;;;;;;;4977120;28;20053;-59
2022/01/24 06:54:03;;;;;;;21.50;11.75;;;;;;;;;;4959475;28;20026;-58
2022/01/24 06:56:29;;;;;;;21.73;10.48;;;;;;;;;;4977345;28;20041;-61
2022/01/24 06:58:55;;;;;;;17.83;9.18;;;;;;;;;;4976513;28;20556;-53
2022/01/24 07:01:22;;;;;;;18.92;10.23;;;;;;;;;;4975277;28;20070;-59
2022/01/24 07:03:48;;;;;;;22.50;10.75;;;;;;;;;;4976071;28;20023;-54
2022/01/24 07:06:14;;;;;;;21.20;10.48;;;;;;;;;;4976694;28;20468;-64
2022/01/24 07:08:40;;;;;;;25.55;10.82;;;;;;;;;;4976321;28;20117;-61
2022/01/24 07:11:07;;;;;;;23.08;12.07;;;;;;;;;;4975543;28;20081;-59
2022/01/24 07:13:33;;;;;;;22.63;11.07;;;;;;;;;;4975780;28;20027;-59
2022/01/24 07:16:03;;;;;;;21.92;10.45;;;;;;;;;;4976688;28;20019;-60
2022/01/24 07:20:56;;;;;;;25.95;13.10;;;;;;;;;;4976458;28;20096;-56
2022/01/24 07:23:23;;;;;;;24.67;11.73;;;;;;;;;;4976308;28;20031;-61
2022/01/24 07:25:49;;;;;;;22.40;10.73;;;;;;;;;;4976448;28;20468;-58
2022/01/24 07:28:15;;;;;;;25.25;10.77;;;;;;;;;;4976195;28;20325;-62
2022/01/24 07:30:41;;;;;;;23.10;10.80;;;;;;;;;;4976127;28;20037;-58
2022/01/24 07:33:08;;;;;;;23.52;11.43;;;;;;;;;;4976229;28;20053;-60
2022/01/24 07:35:34;;;;;;;32.20;11.85;;;;;;;;;;4976567;28;20019;-54
2022/01/24 07:38:00;;;;;;;26.05;11.93;;;;;;;;;;4976011;28;20476;-61
2022/01/24 07:40:26;;;;;;;26.85;12.88;;;;;;;;;;4976743;28;20081;-62
2022/01/24 07:43:08;;;;;;;22.45;11.18;;;;;;;;;;4976369;28;20082;-58
2022/01/24 07:45:35;;;;;;;23.55;11.32;;;;;;;;;;4976974;28;20480;-62
2022/01/24 07:48:02;;;;;;;21.70;10.88;;;;;;;;;;4958961;28;20460;-61
2022/01/24 07:50:29;;;;;;;29.35;13.20;;;;;;;;;;4975747;28;20150;-59
2022/01/24 07:52:56;;;;;;;36.20;14.80;;;;;;;;;;4976130;28;20113;-61
2022/01/24 07:55:23;;;;;;;52.10;19.38;;;;;;;;;;4975951;28;20464;-62
2022/01/24 07:57:49;;;;;;;49.15;18.42;;;;;;;;;;4975601;28;20113;-59
2022/01/24 08:00:15;;;;;;;47.30;18.20;;;;;;;;;;4974400;28;20029;-58
2022/01/24 08:02:42;;;;;;;29.70;14.27;;;;;;;;;;4976350;28;20472;-59
2022/01/24 08:05:08;;;;;;;38.15;16.77;;;;;;;;;;4975312;28;20185;-59
2022/01/24 08:07:35;;;;;;;66.65;22.25;;;;;;;;;;4975949;28;20504;-58
2022/01/24 08:10:01;;;;;;;85.47;27.20;;;;;;;;;;4974975;28;20380;-62
2022/01/24 08:12:27;;;;;;;47.75;19.00;;;;;;;;;;4975442;28;20070;-58
2022/01/24 08:14:54;;;;;;;47.15;18.90;;;;;;;;;;4974004;28;20046;-57
2022/01/24 08:17:20;;;;;;;38.67;16.35;;;;;;;;;;4974095;28;20066;-60
2022/01/24 08:19:46;;;;;;;29.38;13.82;;;;;;;;;;4975248;28;20464;-62
2022/01/24 08:22:13;;;;;;;36.65;16.25;;;;;;;;;;4975641;28;20034;-60
2022/01/24 08:24:39;;;;;;;38.35;17.35;;;;;;;;;;4975592;28;20109;-60
2022/01/24 08:27:06;;;;;;;36.90;16.55;;;;;;;;;;4975121;28;20030;-62
2022/01/24 08:29:32;;;;;;;28.30;15.35;;;;;;;;;;4975493;28;20376;-60
2022/01/24 08:31:58;;;;;;;29.38;14.63;;;;;;;;;;4974828;28;20031;-60
2022/01/24 08:34:24;;;;;;;32.78;14.88;;;;;;;;;;4975012;28;20018;-59
2022/01/24 08:36:50;;;;;;;33.45;16.10;;;;;;;;;;4974079;28;20027;-59
2022/01/24 08:39:16;;;;;;;28.63;15.70;;;;;;;;;;4973492;28;20019;-62
2022/01/24 08:45:41;;;;;;;27.80;14.93;;;;;;;;;;4975547;28;20489;-63
2022/01/24 08:47:13;;;;;;;24.75;13.35;;;;;;;;;;4974536;28;20060;-62
2022/01/24 08:49:39;;;;;;;24.30;11.93;;;;;;;;;;4975024;28;20023;-62
2022/01/24 08:52:05;;;;;;;21.65;13.07;;;;;;;;;;4975126;28;20038;-66
2022/01/24 08:54:32;;;;;;;25.55;14.27;;;;;;;;;;4974669;28;20488;-61
2022/01/24 08:56:58;;;;;;;24.02;13.25;;;;;;;;;;4974916;28;20054;-64
2022/01/24 08:59:24;;;;;;;25.70;12.75;;;;;;;;;;4988261;28;20027;-60
2022/01/24 09:01:51;;;;;;;23.90;12.38;;;;;;;;;;4978114;28;20027;-60
2022/01/24 09:04:17;;;;;;;22.88;13.15;;;;;;;;;;4975033;28;20023;-59
2022/01/24 09:06:43;;;;;;;17.63;10.48;;;;;;;;;;4974418;28;20101;-60
2022/01/24 09:09:09;;;;;;;19.08;10.50;;;;;;;;;;4974755;28;20022;-65
2022/01/24 09:11:37;;;;;;;19.50;10.50;;;;;;;;;;4974858;28;20480;-57
2022/01/24 09:14:04;;;;;;;17.00;9.98;;;;;;;;;;4974497;28;20059;-60
2022/01/24 09:16:30;;;;;;;17.58;10.88;;;;;;;;;;4974665;28;20019;-60
2022/01/24 09:18:57;;;;;;;18.48;10.85;;;;;;;;;;4987183;28;20025;-65
2022/01/24 09:21:30;;;;;;;21.25;11.60;;;;;;;;;;4981779;28;20129;-64
2022/01/24 09:23:56;;;;;;;18.02;11.05;;;;;;;;;;4977764;28;20060;-60
2022/01/24 09:26:23;;;;;;;19.70;11.50;;;;;;;;;;4977203;28;20059;-61
2022/01/24 09:28:49;;;;;;;20.88;11.70;;;;;;;;;;4982442;28;20030;-58
2022/01/24 09:31:15;;;;;;;22.77;11.38;;;;;;;;;;4982325;28;20026;-63
2022/01/24 09:33:41;;;;;;;17.63;11.27;;;;;;;;;;4981679;28;20031;-60
2022/01/24 09:36:07;;;;;;;19.90;11.02;;;;;;;;;;4977393;28;20022;-61
2022/01/24 09:38:34;;;;;;;21.27;12.35;;;;;;;;;;4995662;28;20523;-61
2022/01/24 09:41:02;;;;;;;22.50;13.18;;;;;;;;;;4994152;28;20029;-59
2022/01/24 09:43:28;;;;;;;26.58;14.48;;;;;;;;;;4994017;28;20077;-60
2022/01/24 09:45:56;;;;;;;19.85;12.27;;;;;;;;;;4993889;28;20018;-61
2022/01/24 09:48:22;;;;;;;51.55;30.15;;;;;;;;;;4994042;28;20105;-62
2022/01/24 09:50:51;;;;;;;26.27;14.52;;;;;;;;;;4977457;28;20379;-61
2022/01/24 09:53:17;;;;;;;20.73;13.18;;;;;;;;;;4997473;28;20042;-60
2022/01/24 09:55:44;;;;;;;25.48;15.15;;;;;;;;;;4997823;28;20084;-58
2022/01/24 09:58:10;;;;;;;20.83;14.75;;;;;;;;;;4997764;28;20054;-62
2022/01/24 10:00:36;;;;;;;24.58;15.23;;;;;;;;;;4980263;28;20030;-61
2022/01/24 10:03:02;;;;;;;25.17;14.57;;;;;;;;;;4997461;28;20033;-64
2022/01/24 10:05:30;;;;;;;29.90;15.85;;;;;;;;;;4998012;28;20490;-59
2022/01/24 10:07:58;;;;;;;28.58;16.40;;;;;;;;;;4997937;28;20053;-63
2022/01/24 10:10:35;;;;;;;29.70;16.27;;;;;;;;;;4997242;28;20026;-59
2022/01/24 10:16:36;;;;;;;23.40;14.68;;;;;;;;;;4986223;28;20033;-61
2022/01/24 10:19:05;;;;;;;21.83;13.45;;;;;;;;;;4984874;28;20054;-61
2022/01/24 10:21:44;;;;;;;24.70;15.15;;;;;;;;;;4985594;28;20033;-62
2022/01/24 10:24:14;;;;;;;20.60;12.55;;;;;;;;;;4986341;28;20015;-58
2022/01/24 10:26:40;;;;;;;22.20;13.23;;;;;;;;;;4985338;28;20494;-61
2022/01/24 10:29:10;;;;;;;23.38;14.10;;;;;;;;;;4986699;28;20479;-67
2022/01/24 10:31:44;;;;;;;25.65;14.70;;;;;;;;;;4969448;28;20038;-64
2022/01/24 10:34:17;;;;;;;26.90;14.93;;;;;;;;;;4985618;28;20160;-60
2022/01/24 10:36:51;;;;;;;22.15;13.20;;;;;;;;;;4988081;28;20097;-61
2022/01/24 10:39:29;;;;;;;19.45;12.85;;;;;;;;;;4968698;28;20022;-61
2022/01/24 10:44:53;;;;;;;25.20;15.48;;;;;;;;;;4985650;28;20031;-61
2022/01/24 10:47:24;;;;;;;23.85;14.32;;;;;;;;;;4984797;28;20029;-65
2022/01/24 10:49:51;;;;;;;27.92;16.17;;;;;;;;;;4994552;28;20485;-54
2022/01/24 10:52:19;;;;;;;18.27;12.50;;;;;;;;;;4985392;28;20034;-56
2022/01/24 10:54:45;;;;;;;22.85;14.23;;;;;;;;;;4984118;28;20018;-56
2022/01/24 10:57:28;;;;;;;21.30;13.98;;;;;;;;;;4976830;28;20126;-55
2022/01/24 11:00:07;;;;;;;27.42;16.52;;;;;;;;;;4975832;28;20092;-56
2022/01/24 11:02:40;;;;;;;26.95;15.48;;;;;;;;;;4958801;28;20035;-54
2022/01/24 11:05:17;;;;;;;22.95;14.30;;;;;;;;;;4984246;28;20029;-52
2022/01/24 11:08:03;;;;;;;27.58;15.85;;;;;;;;;;4989693;28;20050;-54
2022/01/24 11:10:34;;;;;;;25.08;14.45;;;;;;;;;;4994560;28;20029;-57
2022/01/24 11:13:05;;;;;;;24.00;15.13;;;;;;;;;;4994386;28;20037;-57
2022/01/24 11:15:32;;;;;;;25.45;15.50;;;;;;;;;;4996715;28;20105;-60
2022/01/24 11:17:59;;;;;;;22.95;15.45;;;;;;;;;;4983416;28;20027;-57
2022/01/24 11:20:31;;;;;;;23.45;16.17;;;;;;;;;;4984689;28;20041;-58
2022/01/24 11:23:00;;;;;;;22.83;14.57;;;;;;;;;;4982958;28;20031;-59
2022/01/24 11:25:28;;;;;;;22.75;14.68;;;;;;;;;;4984210;28;20030;-56
2022/01/24 11:27:54;;;;;;;24.08;14.30;;;;;;;;;;4985307;28;20049;-60
2022/01/24 11:30:22;;;;;;;29.98;16.83;;;;;;;;;;4984350;28;20376;-60
2022/01/24 11:33:04;;;;;;;23.27;15.10;;;;;;;;;;4984454;28;20367;-60
2022/01/24 11:35:54;;;;;;;20.80;14.05;;;;;;;;;;4985569;28;20034;-61
2022/01/24 11:38:35;;;;;;;24.77;15.40;;;;;;;;;;4985142;28;20022;-58
2022/01/24 11:41:04;;;;;;;20.30;12.73;;;;;;;;;;4984709;28;20491;-57
2022/01/24 11:43:36;;;;;;;21.17;14.10;;;;;;;;;;4984324;28;20137;-59
2022/01/24 11:46:08;;;;;;;19.65;12.55;;;;;;;;;;4986626;28;20054;-57
2022/01/24 11:48:38;;;;;;;19.85;12.75;;;;;;;;;;4984340;28;20058;-59
2022/01/24 11:51:09;;;;;;;19.95;13.55;;;;;;;;;;4983599;28;20023;-56
2022/01/24 11:53:35;;;;;;;;;;;;;;;;;;4966207;28;20030;-56
2022/01/24 11:56:25;;;;;;;58.50;30.45;;;;;;;;;;4984214;28;19941;-58
2022/01/24 11:58:53;;;;;;;51.35;26.83;;;;;;;;;;4985261;28;20057;-55
2022/01/24 12:01:48;;;;;;;31.42;15.70;;;;;;;;;;4983018;28;20105;-58
2022/01/24 12:04:14;;;;;;;31.45;17.98;;;;;;;;;;4991493;28;20403;-57
2022/01/24 12:06:59;;;;;;;19.50;12.20;;;;;;;;;;4995488;28;20084;-54
2022/01/24 12:09:25;;;;;;;55.28;30.95;;;;;;;;;;4994858;28;20450;-60
2022/01/24 12:11:54;;;;;;;24.15;13.57;;;;;;;;;;4977800;28;20082;-53
2022/01/24 12:14:36;;;;;;;18.35;11.10;;;;;;;;;;4983337;28;20443;-58
2022/01/24 12:17:03;;;;;;;19.42;10.73;;;;;;;;;;4991843;28;20049;-56
2022/01/24 12:19:31;;;;;;;20.08;11.45;;;;;;;;;;4994630;28;20072;-58
2022/01/24 12:21:58;;;;;;;18.13;10.98;;;;;;;;;;4993740;28;20044;-56
2022/01/24 12:24:43;;;;;;;108.18;51.63;;;;;;;;;;4992270;28;20018;-56
2022/01/24 12:27:16;;;;;;;23.20;12.45;;;;;;;;;;4985347;28;20058;-61
2022/01/24 12:29:43;;;;;;;30.10;13.68;;;;;;;;;;4985626;28;20057;-53
2022/01/24 12:32:21;;;;;;;24.38;12.43;;;;;;;;;;4992419;28;20109;-55
2022/01/24 12:34:47;;;;;;;21.20;11.30;;;;;;;;;;4993034;28;20456;-53
2022/01/24 12:37:29;;;;;;;20.88;11.15;;;;;;;;;;4992528;28;20052;-56
2022/01/24 12:40:07;;;;;;;23.15;12.27;;;;;;;;;;4974869;28;20026;-57
2022/01/24 12:42:57;;;;;;;24.92;11.48;;;;;;;;;;4958300;28;20070;-53
2022/01/24 12:48:13;;;;;;;19.63;10.85;;;;;;;;;;4975258;28;20033;-59
2022/01/24 12:50:43;;;;;;;21.38;11.93;;;;;;;;;;4982128;28;20019;-58
2022/01/24 12:53:12;;;;;;;23.13;12.88;;;;;;;;;;4984700;28;20117;-59
2022/01/24 12:55:38;;;;;;;26.85;12.27;;;;;;;;;;4985334;28;20022;-58
2022/01/24 12:58:04;;;;;;;27.90;13.45;;;;;;;;;;4982627;28;20086;-57
2022/01/24 13:00:32;;;;;;;25.15;13.10;;;;;;;;;;4983740;28;20479;-54
2022/01/24 13:02:58;;;;;;;26.70;12.65;;;;;;;;;;4983246;28;20055;-56
2022/01/24 13:05:26;;;;;;;21.58;12.10;;;;;;;;;;4982809;28;20030;-60
2022/01/24 13:07:53;;;;;;;22.88;11.30;;;;;;;;;;4979695;28;20026;-58
2022/01/24 13:10:24;;;;;;;25.25;13.15;;;;;;;;;;4983288;28;20357;-58
2022/01/24 13:13:03;;;;;;;25.35;12.27;;;;;;;;;;4982142;28;20032;-58
2022/01/24 13:21:15;;;;;;;23.95;11.52;;;;;;;;;;4982521;28;20038;-57
2022/01/24 13:23:45;;;;;;;30.30;12.18;;;;;;;;;;4982353;28;20031;-58
2022/01/24 13:26:12;;;;;;;27.70;13.75;;;;;;;;;;4981309;28;20031;-57
2022/01/24 13:28:38;;;;;;;22.63;10.70;;;;;;;;;;4984228;28;20022;-55
2022/01/24 13:31:05;;;;;;;18.92;10.07;;;;;;;;;;4984523;28;20106;-58
2022/01/24 13:33:35;;;;;;;20.30;10.75;;;;;;;;;;4982382;28;20027;-59
2022/01/24 13:36:05;;;;;;;25.63;10.82;;;;;;;;;;4983047;28;20502;-58
2022/01/24 13:38:34;;;;;;;34.03;13.23;;;;;;;;;;4982447;28;20015;-61
2022/01/24 13:41:03;;;;;;;18.70;9.82;;;;;;;;;;4983317;28;20023;-58
2022/01/24 13:43:32;;;;;;;20.08;11.73;;;;;;;;;;4967464;28;20490;-59
2022/01/24 13:45:59;;;;;;;20.35;12.07;;;;;;;;;;4983661;28;20488;-55
2022/01/24 13:48:56;;;;;;;25.00;12.30;;;;;;;;;;4982404;28;20023;-56
2022/01/24 13:51:32;;;;;;;20.27;11.80;;;;;;;;;;4969790;28;20453;-57
2022/01/24 13:54:00;;;;;;;19.35;11.38;;;;;;;;;;4982524;28;20023;-56
2022/01/24 13:56:45;;;;;;;19.35;10.85;;;;;;;;;;4982097;28;20030;-52
2022/01/24 13:59:14;;;;;;;18.33;10.60;;;;;;;;;;4984838;28;20065;-58
2022/01/24 14:02:00;;;;;;;22.80;11.18;;;;;;;;;;4983550;28;20029;-56
2022/01/24 14:04:28;;;;;;;27.88;13.32;;;;;;;;;;4984395;28;20030;-55
2022/01/24 14:06:59;;;;;;;28.02;14.30;;;;;;;;;;4981233;28;20026;-56
2022/01/24 14:09:33;;;;;;;23.40;12.50;;;;;;;;;;4980760;28;20030;-55
2022/01/24 14:12:00;;;;;;;23.40;13.15;;;;;;;;;;4983350;28;20113;-57
2022/01/24 14:14:30;;;;;;;31.90;14.60;;;;;;;;;;4982135;28;20050;-53
2022/01/24 14:17:16;;;;;;;33.42;14.55;;;;;;;;;;4982918;28;20019;-55
2022/01/24 14:19:43;;;;;;;27.17;13.45;;;;;;;;;;4982801;28;20034;-58
2022/01/24 14:22:10;;;;;;;29.85;14.75;;;;;;;;;;4981943;28;20078;-56
2022/01/24 14:24:52;;;;;;;27.33;13.55;;;;;;;;;;4984594;28;20026;-59
2022/01/24 14:27:37;;;;;;;30.60;14.52;;;;;;;;;;4978811;28;20023;-59
2022/01/24 14:30:07;;;;;;;35.63;17.27;;;;;;;;;;4979681;28;20043;-59
2022/01/24 14:32:38;;;;;;;32.40;14.65;;;;;;;;;;4982610;28;20491;-59
2022/01/24 14:35:07;;;;;;;26.08;13.50;;;;;;;;;;4984053;28;20428;-58
2022/01/24 14:37:46;;;;;;;31.45;15.43;;;;;;;;;;4983730;28;20022;-55
2022/01/24 14:40:31;;;;;;;58.20;27.48;;;;;;;;;;4969229;28;20462;-55
2022/01/24 14:44:53;;;;;;;29.80;15.23;;;;;;;;;;4987016;28;20051;-56
2022/01/24 14:45:43;;;;;;;29.40;14.60;;;;;;;;;;4986904;28;20034;-54
2022/01/24 14:48:09;;;;;;;29.17;13.98;;;;;;;;;;4986066;28;20018;-55
2022/01/24 14:50:36;;;;;;;33.45;14.45;;;;;;;;;;4985917;28;20379;-55
2022/01/24 14:53:05;;;;;;;30.80;14.07;;;;;;;;;;4987080;28;20109;-60
2022/01/24 14:55:31;;;;;;;32.70;14.43;;;;;;;;;;4986102;28;20030;-56
2022/01/24 14:57:58;;;;;;;28.67;12.73;;;;;;;;;;4987179;28;20118;-54
2022/01/24 15:00:25;;;;;;;24.15;11.80;;;;;;;;;;4985174;28;20023;-54
2022/01/24 15:02:51;;;;;;;25.52;11.98;;;;;;;;;;4986678;28;20029;-56
2022/01/24 15:05:18;;;;;;;28.00;14.23;;;;;;;;;;4987375;28;20059;-55
2022/01/24 15:07:44;;;;;;;32.22;15.07;;;;;;;;;;4983201;28;20027;-55
2022/01/24 15:10:15;;;;;;;25.30;13.65;;;;;;;;;;4983773;28;20018;-57
2022/01/24 15:12:48;;;;;;;31.02;14.13;;;;;;;;;;4986812;28;20468;-60
2022/01/24 15:15:19;;;;;;;28.00;12.70;;;;;;;;;;4985329;28;20066;-56
2022/01/24 15:26:04;;;;;;;31.08;14.45;;;;;;;;;;4986274;28;20095;-60
2022/01/24 15:28:31;;;;;;;26.75;13.18;;;;;;;;;;4984367;28;20082;-55
2022/01/24 15:30:57;;;;;;;34.67;14.73;;;;;;;;;;4984914;28;20019;-60
2022/01/24 15:33:23;;;;;;;28.95;14.65;;;;;;;;;;4986400;28;20027;-57
2022/01/24 15:35:53;;;;;;;33.45;14.20;;;;;;;;;;4985759;28;20042;-58
2022/01/24 15:38:19;;;;;;;34.78;16.58;;;;;;;;;;4986235;28;20102;-55
2022/01/24 15:40:46;;;;;;;31.67;14.73;;;;;;;;;;4985219;28;20503;-61
2022/01/24 15:43:27;;;;;;;29.67;14.75;;;;;;;;;;4983615;28;20089;-62
2022/01/24 15:48:38;;;;;;;30.55;14.20;;;;;;;;;;4992434;28;19913;-60
2022/01/24 15:51:11;;;;;;;26.60;13.10;;;;;;;;;;4995681;28;20056;-56
2022/01/24 15:53:37;;;;;;;34.72;14.75;;;;;;;;;;4990526;28;20067;-58
2022/01/24 15:57:39;;;;;;;28.77;14.50;;;;;;;;;;4982613;28;20485;-59
2022/01/24 15:59:04;;;;;;;28.85;14.80;;;;;;;;;;4977300;28;20474;-59
2022/01/24 16:01:31;;;;;;;28.98;14.52;;;;;;;;;;4992336;28;20152;-61
2022/01/24 16:04:06;;;;;;;31.35;14.93;;;;;;;;;;4995291;28;20022;-60
2022/01/24 16:06:32;;;;;;;35.05;16.25;;;;;;;;;;4995375;28;20018;-61
2022/01/24 16:08:59;;;;;;;33.97;17.35;;;;;;;;;;4976409;28;20015;-63
2022/01/24 16:11:25;;;;;;;34.25;17.20;;;;;;;;;;4978613;28;20029;-57
2022/01/24 16:13:52;;;;;;;34.72;15.25;;;;;;;;;;4974696;28;20118;-57
2022/01/24 16:16:27;;;;;;;44.08;16.80;;;;;;;;;;4977841;28;20029;-59
2022/01/24 16:18:54;;;;;;;38.65;17.38;;;;;;;;;;4989635;28;20031;-61
2022/01/24 16:24:04;;;;;;;38.83;18.95;;;;;;;;;;4990927;28;20027;-58
2022/01/24 16:26:31;;;;;;;39.80;18.67;;;;;;;;;;4984647;28;20375;-58
2022/01/24 16:28:57;;;;;;;38.38;19.08;;;;;;;;;;4983612;28;20021;-59
2022/01/24 16:31:23;;;;;;;69.78;28.35;;;;;;;;;;4985193;28;20027;-59
2022/01/24 16:33:57;;;;;;;207.18;60.95;;;;;;;;;;4984288;28;20026;-61
2022/01/24 16:36:27;;;;;;;66.93;26.88;;;;;;;;;;4983249;28;20535;-57
2022/01/24 16:38:53;;;;;;;49.53;20.73;;;;;;;;;;4982819;28;20445;-61